Time;durP1;ratioP1;P1;durP2;ratioP2;P2;SDS_P1;SDS_P2;PMS_P1;PMS_P2;Temp;Humidity;BMP_temperature;BMP_pressure;BME280_temperature;BME280_humidity;BME280_pressure;Samples;Min_cycle;Max_cycle;Signal;HPM_P1;HPM_P2
2020/12/17 00:00:24;;;;;;;11.67;10.70;;;10.20;50.20;;;;;;5037589;28;20446;-69
2020/12/17 00:02:50;;;;;;;11.90;10.90;;;10.10;49.90;;;;;;5034996;28;20711;-65
2020/12/17 00:05:16;;;;;;;12.70;11.60;;;10.10;50.70;;;;;;5037284;28;20553;-67
2020/12/17 00:07:42;;;;;;;11.00;10.03;;;10.10;51.50;;;;;;5035556;28;20246;-67
2020/12/17 00:10:11;;;;;;;12.43;11.37;;;10.30;50.00;;;;;;5037111;28;20994;-66
2020/12/17 00:12:41;;;;;;;12.20;11.20;;;10.20;49.60;;;;;;5035412;28;20446;-67
2020/12/17 00:15:08;;;;;;;10.77;9.83;;;10.00;50.10;;;;;;5037469;28;20449;-65
2020/12/17 00:17:45;;;;;;;11.67;10.57;;;9.60;52.00;;;;;;5035280;28;20450;-67
2020/12/17 00:20:11;;;;;;;13.07;11.53;;;9.30;53.60;;;;;;5036608;28;20461;-66
2020/12/17 00:22:39;;;;;;;11.47;10.47;;;9.40;52.90;;;;;;5041362;28;20469;-66
2020/12/17 00:25:06;;;;;;;11.67;10.67;;;9.20;53.50;;;;;;5053612;28;20780;-66
2020/12/17 00:27:32;;;;;;;12.40;10.10;;;9.30;53.70;;;;;;5053503;28;20858;-66
2020/12/17 00:29:57;;;;;;;10.97;9.97;;;9.10;54.80;;;;;;5052195;28;20446;-66
2020/12/17 00:32:23;;;;;;;11.10;10.10;;;8.90;55.40;;;;;;5052158;28;20432;-67
2020/12/17 00:34:49;;;;;;;11.50;10.50;;;9.10;55.20;;;;;;5052337;28;20723;-67
2020/12/17 00:37:14;;;;;;;11.20;10.27;;;9.20;54.00;;;;;;5052256;28;20603;-67
2020/12/17 00:39:40;;;;;;;10.07;9.20;;;9.20;54.70;;;;;;5052429;28;20207;-67
2020/12/17 00:42:06;;;;;;;10.70;9.53;;;9.20;53.50;;;;;;5052210;28;20172;-67
2020/12/17 00:44:31;;;;;;;11.83;10.90;;;9.30;53.40;;;;;;5052324;28;20179;-67
2020/12/17 00:46:57;;;;;;;10.13;9.23;;;9.30;53.10;;;;;;5053718;28;20586;-67
2020/12/17 00:49:23;;;;;;;11.10;10.20;;;9.60;52.80;;;;;;5052739;28;20184;-67
2020/12/17 00:51:48;;;;;;;10.37;9.57;;;9.60;52.00;;;;;;5053576;28;20582;-65
2020/12/17 00:54:14;;;;;;;11.07;9.47;;;9.70;51.40;;;;;;5053276;28;20192;-65
2020/12/17 00:56:46;;;;;;;10.80;9.90;;;9.80;50.80;;;;;;5053335;28;20183;-66
2020/12/17 00:59:13;;;;;;;8.97;8.27;;;9.80;50.20;;;;;;5053279;28;20211;-66
2020/12/17 01:01:38;;;;;;;10.60;9.70;;;10.00;48.90;;;;;;5053424;28;20464;-66
2020/12/17 01:04:04;;;;;;;9.73;8.93;;;10.10;48.20;;;;;;5053088;28;20434;-66
2020/12/17 01:06:30;;;;;;;9.40;8.50;;;10.20;47.80;;;;;;5053075;28;20518;-66
2020/12/17 01:08:55;;;;;;;10.67;9.77;;;10.10;47.60;;;;;;5052974;28;20187;-66
2020/12/17 01:11:26;;;;;;;9.87;8.97;;;9.90;49.20;;;;;;5052992;28;20191;-65
2020/12/17 01:13:52;;;;;;;9.37;8.47;;;10.00;48.40;;;;;;5052997;28;20230;-66
2020/12/17 01:16:17;;;;;;;11.20;8.90;;;10.00;48.50;;;;;;5053022;28;20456;-66
2020/12/17 01:18:43;;;;;;;10.10;9.20;;;10.10;48.30;;;;;;5052598;28;20203;-66
2020/12/17 01:21:08;;;;;;;9.37;8.57;;;10.10;47.70;;;;;;5052944;28;20179;-65
2020/12/17 01:23:34;;;;;;;9.63;8.80;;;10.20;47.60;;;;;;5052739;28;20207;-66
2020/12/17 01:25:59;;;;;;;9.53;8.73;;;10.10;47.50;;;;;;5052690;28;20179;-66
2020/12/17 01:28:25;;;;;;;9.90;9.00;;;10.20;47.30;;;;;;5052582;28;20172;-65
2020/12/17 01:30:50;;;;;;;9.40;8.60;;;10.00;47.30;;;;;;5052735;28;20630;-66
2020/12/17 01:33:18;;;;;;;10.70;9.80;;;10.10;47.50;;;;;;5052589;28;20202;-66
2020/12/17 01:35:44;;;;;;;9.10;8.33;;;10.10;47.50;;;;;;5052595;28;20183;-66
2020/12/17 01:38:09;;;;;;;8.90;8.20;;;10.10;47.40;;;;;;5052319;28;20465;-66
2020/12/17 01:40:35;;;;;;;9.23;8.43;;;10.10;47.40;;;;;;5052458;28;20406;-66
2020/12/17 01:43:00;;;;;;;9.30;8.50;;;10.10;47.30;;;;;;5052392;28;20284;-66
2020/12/17 01:45:26;;;;;;;10.70;9.80;;;10.10;47.40;;;;;;5052445;28;20168;-66
2020/12/17 01:47:53;;;;;;;9.07;8.33;;;10.10;46.90;;;;;;5052174;28;20202;-65
2020/12/17 01:50:20;;;;;;;9.77;8.97;;;10.10;47.10;;;;;;5052402;28;20178;-66
2020/12/17 01:52:45;;;;;;;10.00;9.20;;;10.00;46.80;;;;;;5052263;28;20449;-65
2020/12/17 01:55:11;;;;;;;9.80;9.00;;;10.00;47.20;;;;;;5052316;28;20889;-66
2020/12/17 01:57:43;;;;;;;10.00;9.10;;;10.00;46.80;;;;;;5052042;28;20183;-66
2020/12/17 02:00:09;;;;;;;9.90;9.00;;;10.00;47.80;;;;;;5051767;28;20203;-66
2020/12/17 02:02:36;;;;;;;9.93;9.20;;;10.00;47.00;;;;;;5051267;28;20430;-65
2020/12/17 02:05:05;;;;;;;10.43;9.53;;;10.10;46.90;;;;;;5052029;28;20413;-65
2020/12/17 02:07:30;;;;;;;10.70;9.80;;;10.00;46.40;;;;;;5052050;28;20414;-65
2020/12/17 02:09:56;;;;;;;10.10;9.30;;;9.90;47.30;;;;;;5052119;28;20497;-66
2020/12/17 02:12:22;;;;;;;8.37;7.57;;;10.00;47.10;;;;;;5052010;28;20330;-66
2020/12/17 02:14:48;;;;;;;9.00;8.30;;;9.90;47.10;;;;;;5052040;28;20890;-65
2020/12/17 02:17:13;;;;;;;8.87;8.20;;;9.90;47.80;;;;;;5051814;28;20172;-66
2020/12/17 02:19:39;;;;;;;9.27;8.47;;;10.00;46.40;;;;;;5051703;28;20211;-66
2020/12/17 02:22:04;;;;;;;9.20;8.47;;;10.00;45.70;;;;;;5051432;28;20630;-66
2020/12/17 02:24:30;;;;;;;8.93;8.13;;;10.00;45.70;;;;;;5051775;28;20179;-66
2020/12/17 02:26:55;;;;;;;9.37;8.57;;;9.90;46.60;;;;;;5051755;28;20168;-66
2020/12/17 02:29:21;;;;;;;10.00;9.13;;;10.00;45.70;;;;;;5051591;28;20650;-66
2020/12/17 02:31:47;;;;;;;10.07;9.07;;;9.90;46.90;;;;;;5051844;28;20182;-66
2020/12/17 02:34:13;;;;;;;9.87;9.17;;;9.80;47.10;;;;;;5051631;28;20801;-66
2020/12/17 02:36:39;;;;;;;8.87;8.07;;;9.70;46.90;;;;;;5051577;28;20262;-66
2020/12/17 02:39:04;;;;;;;8.80;8.00;;;9.70;46.60;;;;;;5051430;28;20234;-67
2020/12/17 02:41:30;;;;;;;11.20;10.10;;;9.50;47.10;;;;;;5051435;28;20442;-67
2020/12/17 02:43:56;;;;;;;8.87;8.17;;;9.60;47.30;;;;;;5051368;28;20732;-67
2020/12/17 02:46:21;;;;;;;8.37;7.70;;;9.60;47.30;;;;;;5051331;28;20214;-66
2020/12/17 02:48:51;;;;;;;8.80;8.00;;;9.60;47.20;;;;;;5051228;28;20183;-66
2020/12/17 02:51:18;;;;;;;9.67;8.87;;;9.60;47.20;;;;;;5051162;28;20222;-67
2020/12/17 02:53:43;;;;;;;9.03;8.33;;;9.70;47.30;;;;;;5051057;28;20442;-66
2020/12/17 02:56:13;;;;;;;9.30;8.50;;;9.80;46.60;;;;;;5051210;28;20466;-66
2020/12/17 02:58:38;;;;;;;8.10;7.40;;;9.80;46.60;;;;;;5050928;28;20253;-66
2020/12/17 03:01:04;;;;;;;8.63;7.93;;;9.90;46.30;;;;;;5051065;28;20410;-67
2020/12/17 03:03:29;;;;;;;8.23;7.53;;;9.80;46.10;;;;;;5050995;28;20192;-66
2020/12/17 03:05:55;;;;;;;8.50;7.67;;;9.90;46.20;;;;;;5050931;28;20213;-66
2020/12/17 03:08:21;;;;;;;8.00;7.40;;;9.90;46.10;;;;;;5051014;28;20168;-67
2020/12/17 03:10:46;;;;;;;8.33;7.63;;;9.80;46.20;;;;;;5051176;28;20182;-67
2020/12/17 03:13:12;;;;;;;8.63;7.53;;;9.80;46.20;;;;;;5049217;28;20192;-66
2020/12/17 03:15:37;;;;;;;8.47;7.90;;;9.80;46.10;;;;;;5050986;28;20180;-66
2020/12/17 03:18:03;;;;;;;8.40;7.70;;;9.80;46.00;;;;;;5050663;28;20190;-67
2020/12/17 03:20:29;;;;;;;8.53;7.83;;;9.80;46.30;;;;;;5050812;28;20179;-67
2020/12/17 03:22:54;;;;;;;9.60;8.80;;;9.70;46.50;;;;;;5050652;28;20207;-66
2020/12/17 03:25:20;;;;;;;8.50;7.90;;;9.60;46.30;;;;;;5050921;28;20259;-66
2020/12/17 03:27:45;;;;;;;8.00;7.40;;;9.60;46.30;;;;;;5050693;28;20172;-66
2020/12/17 03:30:11;;;;;;;8.80;8.20;;;9.70;46.60;;;;;;5050804;28;20705;-67
2020/12/17 03:32:36;;;;;;;9.80;9.00;;;9.70;46.40;;;;;;5050720;28;20191;-66
2020/12/17 03:35:03;;;;;;;9.60;8.87;;;9.60;46.20;;;;;;5050701;28;20219;-66
2020/12/17 03:37:28;;;;;;;7.77;7.17;;;9.50;46.60;;;;;;5050527;28;20176;-66
2020/12/17 03:39:54;;;;;;;8.67;8.00;;;9.30;47.10;;;;;;5050608;28;20500;-66
2020/12/17 03:42:19;;;;;;;8.60;6.90;;;9.40;47.20;;;;;;5050622;28;20225;-66
2020/12/17 03:44:46;;;;;;;7.40;6.80;;;9.40;47.60;;;;;;5050714;28;20275;-66
2020/12/17 03:47:11;;;;;;;7.93;7.33;;;9.50;47.50;;;;;;5050463;28;20179;-66
2020/12/17 03:49:37;;;;;;;7.83;7.23;;;9.60;47.10;;;;;;5050527;28;20778;-66
2020/12/17 03:52:03;;;;;;;9.37;8.67;;;9.60;46.60;;;;;;5050458;28;20172;-67
2020/12/17 03:54:29;;;;;;;7.50;6.90;;;9.60;46.50;;;;;;5050463;28;20168;-66
2020/12/17 03:56:54;;;;;;;7.30;6.80;;;9.60;46.70;;;;;;5050533;28;20187;-66
2020/12/17 03:59:19;;;;;;;8.10;7.40;;;9.60;46.90;;;;;;5050317;28;20565;-66
2020/12/17 04:01:45;;;;;;;9.83;9.03;;;9.50;46.50;;;;;;5050531;28;20180;-66
2020/12/17 04:04:11;;;;;;;7.67;7.00;;;9.40;47.00;;;;;;5050389;28;20192;-67
2020/12/17 04:06:36;;;;;;;9.53;8.70;;;9.50;47.10;;;;;;5050435;28;20225;-66
2020/12/17 04:09:02;;;;;;;8.50;7.80;;;9.40;46.50;;;;;;5050267;28;20181;-67
2020/12/17 04:11:27;;;;;;;7.77;7.17;;;9.50;46.90;;;;;;5050400;28;20176;-67
2020/12/17 04:13:53;;;;;;;9.27;8.37;;;9.50;47.10;;;;;;5050199;28;20286;-66
2020/12/17 04:16:18;;;;;;;9.07;8.27;;;9.60;46.50;;;;;;5050332;28;20184;-66
2020/12/17 04:18:44;;;;;;;9.00;8.20;;;9.40;46.50;;;;;;5049990;28;20231;-66
2020/12/17 04:21:09;;;;;;;8.63;7.33;;;9.40;47.40;;;;;;5050307;28;20183;-66
2020/12/17 04:23:35;;;;;;;8.97;8.20;;;9.30;46.90;;;;;;5050121;28;20345;-67
2020/12/17 04:26:00;;;;;;;8.83;7.93;;;9.30;46.60;;;;;;5053418;28;20655;-66
2020/12/17 04:28:26;;;;;;;10.27;9.37;;;9.40;46.70;;;;;;5053551;28;20180;-66
2020/12/17 04:30:54;;;;;;;9.33;8.63;;;9.40;47.00;;;;;;5053861;28;20263;-66
2020/12/17 04:33:19;;;;;;;9.50;8.67;;;9.40;46.60;;;;;;5053686;28;20434;-66
2020/12/17 04:35:45;;;;;;;9.53;8.73;;;9.40;46.00;;;;;;5053782;28;21037;-66
2020/12/17 04:38:10;;;;;;;9.33;8.53;;;9.30;46.00;;;;;;5053412;28;20176;-66
2020/12/17 04:40:36;;;;;;;8.50;7.80;;;9.50;46.10;;;;;;5053729;28;20180;-66
2020/12/17 04:43:02;;;;;;;9.50;8.50;;;9.60;45.60;;;;;;5053590;28;20661;-66
2020/12/17 04:45:28;;;;;;;9.43;8.73;;;9.70;45.60;;;;;;5053625;28;20165;-66
2020/12/17 04:47:57;;;;;;;10.50;9.50;;;9.60;45.40;;;;;;5053371;28;20247;-66
2020/12/17 04:50:25;;;;;;;9.70;8.90;;;9.60;45.10;;;;;;5053519;28;20756;-66
2020/12/17 04:52:52;;;;;;;10.60;9.70;;;9.50;45.60;;;;;;5053373;28;20575;-67
2020/12/17 04:55:22;;;;;;;9.30;8.53;;;9.70;45.60;;;;;;5053307;28;20903;-66
2020/12/17 04:57:52;;;;;;;9.40;8.70;;;9.70;45.00;;;;;;5053411;28;20461;-67
2020/12/17 05:00:18;;;;;;;9.50;8.70;;;9.80;45.00;;;;;;5052272;28;20477;-66
2020/12/17 05:02:47;;;;;;;10.63;9.73;;;9.80;44.70;;;;;;5053393;28;20438;-66
2020/12/17 05:05:14;;;;;;;9.70;8.97;;;9.80;44.50;;;;;;5053529;28;20176;-66
2020/12/17 05:07:40;;;;;;;11.33;10.30;;;9.70;44.40;;;;;;5053447;28;20406;-66
2020/12/17 05:10:07;;;;;;;9.53;8.80;;;9.80;44.30;;;;;;5053398;28;20425;-67
2020/12/17 05:12:33;;;;;;;10.93;9.03;;;9.90;44.00;;;;;;5053220;28;20799;-67
2020/12/17 05:14:59;;;;;;;9.40;8.60;;;9.90;44.60;;;;;;5052920;28;20407;-67
2020/12/17 05:17:24;;;;;;;10.83;9.93;;;9.70;44.20;;;;;;5052826;28;20425;-67
2020/12/17 05:19:51;;;;;;;10.83;9.90;;;9.50;45.30;;;;;;5048386;28;20538;-64
2020/12/17 05:22:18;;;;;;;9.70;8.90;;;9.50;44.70;;;;;;5052019;28;20196;-66
2020/12/17 05:24:45;;;;;;;9.13;8.37;;;9.60;45.10;;;;;;5052453;28;20460;-65
2020/12/17 05:27:11;;;;;;;10.60;9.57;;;9.50;44.80;;;;;;5052053;28;20497;-66
2020/12/17 05:29:38;;;;;;;10.47;9.47;;;9.60;45.20;;;;;;5052184;28;20560;-66
2020/12/17 05:32:04;;;;;;;10.13;9.23;;;9.50;44.60;;;;;;5052515;28;20275;-65
2020/12/17 05:34:29;;;;;;;13.30;9.90;;;9.60;44.60;;;;;;5051140;28;20465;-66
2020/12/17 05:36:56;;;;;;;10.40;9.60;;;9.50;44.50;;;;;;5051483;28;20234;-66
2020/12/17 05:39:23;;;;;;;11.40;10.43;;;9.40;44.70;;;;;;5052063;28;20251;-67
2020/12/17 05:41:53;;;;;;;11.23;10.33;;;9.30;44.50;;;;;;5052197;28;20878;-67
2020/12/17 05:44:21;;;;;;;10.27;9.43;;;9.30;44.90;;;;;;5051786;28;20419;-65
2020/12/17 05:46:49;;;;;;;10.47;9.53;;;9.40;45.00;;;;;;5052165;28;21121;-65
2020/12/17 05:49:24;;;;;;;10.67;9.90;;;9.30;44.80;;;;;;5051853;28;20414;-65
2020/12/17 05:52:07;;;;;;;11.80;10.90;;;9.00;45.50;;;;;;5051780;28;20410;-65
2020/12/17 05:54:33;;;;;;;9.87;8.97;;;9.10;45.10;;;;;;5051851;28;20932;-65
2020/12/17 05:57:14;;;;;;;9.20;8.50;;;9.10;45.20;;;;;;5052045;28;20414;-65
2020/12/17 05:59:40;;;;;;;9.73;8.77;;;9.20;45.10;;;;;;5051747;28;20210;-65
2020/12/17 06:02:38;;;;;;;10.10;9.20;;;9.30;45.10;;;;;;5051844;28;20402;-65
2020/12/17 06:05:10;;;;;;;9.80;9.00;;;9.00;45.50;;;;;;5050070;28;20505;-65
2020/12/17 06:07:45;;;;;;;27.80;24.40;;;9.00;45.60;;;;;;5051512;28;20418;-65
2020/12/17 06:10:19;;;;;;;9.40;8.60;;;8.90;46.00;;;;;;5051774;28;20551;-65
2020/12/17 06:12:47;;;;;;;10.30;9.43;;;9.00;45.70;;;;;;5051588;28;20500;-65
2020/12/17 06:15:17;;;;;;;12.63;11.40;;;9.20;45.50;;;;;;5051758;28;20937;-65
2020/12/17 06:17:47;;;;;;;10.70;9.77;;;9.30;45.30;;;;;;5051405;28;20445;-65
2020/12/17 06:20:14;;;;;;;8.83;8.03;;;9.20;44.60;;;;;;5051192;28;20472;-65
2020/12/17 06:22:40;;;;;;;9.97;9.00;;;9.10;44.80;;;;;;5051505;28;20454;-66
2020/12/17 06:25:11;;;;;;;10.10;9.20;;;9.30;44.40;;;;;;5051719;28;20544;-65
2020/12/17 06:27:43;;;;;;;9.83;8.93;;;9.30;44.70;;;;;;5051212;28;20399;-66
2020/12/17 06:30:08;;;;;;;9.27;8.40;;;9.30;44.00;;;;;;5051210;28;20789;-64
2020/12/17 06:32:36;;;;;;;8.47;7.77;;;9.30;44.00;;;;;;5051129;28;20437;-65
2020/12/17 06:35:07;;;;;;;9.70;8.87;;;9.20;44.00;;;;;;5050831;28;20745;-64
2020/12/17 06:37:36;;;;;;;7.87;7.23;;;9.20;44.50;;;;;;5049402;28;20430;-65
2020/12/17 06:40:02;;;;;;;8.50;7.70;;;9.20;44.10;;;;;;5050898;28;20461;-65
2020/12/17 06:42:39;;;;;;;9.30;8.40;;;8.90;45.10;;;;;;5050581;28;20418;-65
2020/12/17 06:45:24;;;;;;;9.30;8.60;;;8.90;45.10;;;;;;5050794;28;20414;-65
2020/12/17 06:47:50;;;;;;;11.20;8.97;;;9.00;44.60;;;;;;5050393;28;20406;-65
2020/12/17 06:50:28;;;;;;;8.50;7.60;;;9.10;44.70;;;;;;5051207;28;20501;-65
2020/12/17 06:53:08;;;;;;;8.87;7.97;;;9.10;44.50;;;;;;5050980;28;20460;-66
2020/12/17 06:55:48;;;;;;;7.90;6.83;;;9.40;44.30;;;;;;5050987;28;20505;-67
2020/12/17 06:58:24;;;;;;;13.30;7.50;;;9.70;53.50;;;;;;5050827;28;20913;-66
2020/12/17 07:00:52;;;;;;;9.43;7.20;;;10.80;49.70;;;;;;5051070;28;20489;-66
2020/12/17 07:03:43;;;;;;;9.10;5.90;;;11.10;44.70;;;;;;5050965;28;21085;-67
2020/12/17 07:06:22;;;;;;;8.20;5.90;;;12.10;41.60;;;;;;5049099;28;20723;-67
2020/12/17 07:08:50;;;;;;;6.10;5.50;;;12.30;40.70;;;;;;5049710;28;20410;-67
2020/12/17 07:11:38;;;;;;;5.33;4.97;;;12.40;40.60;;;;;;5050688;28;20403;-67
2020/12/17 07:14:05;;;;;;;5.50;5.00;;;12.50;38.80;;;;;;5049651;28;20426;-67
2020/12/17 07:16:37;;;;;;;6.17;5.60;;;13.20;40.90;;;;;;5050735;28;20402;-67
2020/12/17 07:19:38;;;;;;;6.50;5.90;;;13.10;36.80;;;;;;5050525;28;21003;-65
2020/12/17 07:22:13;;;;;;;6.80;6.20;;;12.00;34.70;;;;;;5047946;28;20464;-65
2020/12/17 07:24:42;;;;;;;6.83;6.17;;;11.30;36.30;;;;;;5050337;28;20447;-66
2020/12/17 07:27:16;;;;;;;5.70;5.20;;;11.00;37.60;;;;;;5050471;28;20398;-65
2020/12/17 07:29:52;;;;;;;5.80;5.40;;;10.70;39.00;;;;;;5049615;28;20456;-65
2020/12/17 07:32:33;;;;;;;5.00;4.70;;;10.70;39.10;;;;;;5050667;28;20457;-65
2020/12/17 07:35:06;;;;;;;5.50;5.10;;;10.20;39.40;;;;;;5050748;28;20407;-66
2020/12/17 07:37:36;;;;;;;5.80;5.20;;;9.80;41.80;;;;;;5050610;28;20411;-65
2020/12/17 07:40:05;;;;;;;7.57;5.47;;;9.90;42.50;;;;;;5050642;28;20476;-65
2020/12/17 07:42:31;;;;;;;6.10;5.50;;;10.00;41.10;;;;;;5050693;28;20493;-65
2020/12/17 07:44:56;;;;;;;5.90;5.40;;;10.00;41.30;;;;;;5050797;28;20418;-66
2020/12/17 07:47:22;;;;;;;6.83;5.63;;;10.10;40.90;;;;;;5050612;28;20626;-65
2020/12/17 07:49:48;;;;;;;4.90;4.50;;;10.20;40.90;;;;;;5050691;28;20203;-67
2020/12/17 07:52:34;;;;;;;5.30;4.90;;;10.20;40.80;;;;;;5047319;28;20531;-65
2020/12/17 07:55:01;;;;;;;5.90;5.50;;;10.30;40.50;;;;;;5048312;28;20422;-66
2020/12/17 07:57:27;;;;;;;6.40;5.80;;;10.40;40.40;;;;;;5050151;28;20446;-68
2020/12/17 07:59:53;;;;;;;6.60;6.07;;;10.40;40.40;;;;;;5053604;28;20948;-66
2020/12/17 08:02:18;;;;;;;8.03;5.97;;;10.40;40.50;;;;;;5053493;28;20434;-67
2020/12/17 08:04:53;;;;;;;7.00;6.50;;;10.40;40.70;;;;;;5054448;28;20172;-68
2020/12/17 08:07:21;;;;;;;5.27;4.77;;;10.40;41.00;;;;;;5053637;28;20164;-64
2020/12/17 08:10:00;;;;;;;5.37;4.57;;;10.20;40.50;;;;;;5052983;28;20414;-64
2020/12/17 08:12:25;;;;;;;4.23;3.93;;;9.80;42.40;;;;;;5054030;28;20429;-67
2020/12/17 08:14:52;;;;;;;7.70;4.20;;;9.70;43.10;;;;;;5054049;28;20402;-67
2020/12/17 08:17:19;;;;;;;4.53;4.20;;;9.70;42.90;;;;;;5053767;28;20414;-65
2020/12/17 08:19:56;;;;;;;6.20;4.47;;;9.80;42.40;;;;;;5053918;28;20451;-65
2020/12/17 08:22:28;;;;;;;4.20;3.83;;;9.80;42.40;;;;;;5053580;28;20491;-67
2020/12/17 08:24:53;;;;;;;3.97;3.67;;;9.90;42.50;;;;;;5054240;28;20477;-68
2020/12/17 08:27:21;;;;;;;4.37;4.07;;;9.90;42.50;;;;;;5053674;28;20944;-68
2020/12/17 08:29:47;;;;;;;4.47;4.07;;;10.00;41.60;;;;;;5053770;28;20190;-66
2020/12/17 08:32:13;;;;;;;4.93;4.47;;;9.90;42.30;;;;;;5053606;28;20410;-65
2020/12/17 08:34:56;;;;;;;8.50;4.57;;;10.10;41.10;;;;;;5053793;28;20218;-64
2020/12/17 08:37:23;;;;;;;4.83;4.03;;;10.10;41.40;;;;;;5053507;28;20167;-68
2020/12/17 08:40:00;;;;;;;3.83;3.60;;;9.80;42.40;;;;;;5053541;28;20456;-66
2020/12/17 08:42:33;;;;;;;4.20;3.90;;;9.70;42.60;;;;;;5053423;28;20426;-66
2020/12/17 08:45:12;;;;;;;4.57;4.20;;;10.00;41.60;;;;;;5053511;28;20421;-65
2020/12/17 08:47:39;;;;;;;4.53;4.13;;;10.20;41.20;;;;;;5053149;28;20421;-65
2020/12/17 08:50:07;;;;;;;8.23;7.53;;;10.20;40.60;;;;;;5053386;28;20414;-65
2020/12/17 08:52:33;;;;;;;4.73;4.13;;;10.30;40.60;;;;;;5053380;28;20521;-66
2020/12/17 08:55:03;;;;;;;5.27;4.70;;;10.20;41.00;;;;;;5053430;28;20969;-67
2020/12/17 08:57:29;;;;;;;4.73;4.10;;;10.40;40.60;;;;;;5053135;28;20172;-67
2020/12/17 08:59:54;;;;;;;4.40;4.10;;;10.40;41.20;;;;;;5053204;28;20482;-66
2020/12/17 09:02:27;;;;;;;4.63;4.33;;;10.30;40.20;;;;;;5053058;28;20199;-67
2020/12/17 09:04:57;;;;;;;4.10;3.70;;;10.30;41.20;;;;;;5053386;28;20658;-67
2020/12/17 09:07:31;;;;;;;6.70;4.00;;;10.50;40.80;;;;;;5053306;28;20426;-65
2020/12/17 09:10:10;;;;;;;10.37;3.90;;;10.30;41.10;;;;;;5052486;28;20488;-67
2020/12/17 09:12:36;;;;;;;4.10;3.80;;;10.40;41.10;;;;;;5052932;28;20431;-66
2020/12/17 09:15:07;;;;;;;4.27;3.97;;;10.20;42.50;;;;;;5052986;28;20409;-67
2020/12/17 09:17:32;;;;;;;10.00;4.80;;;10.30;41.90;;;;;;5052994;28;20271;-65
2020/12/17 09:19:58;;;;;;;4.53;4.23;;;10.30;42.50;;;;;;5052952;28;20554;-66
2020/12/17 09:22:31;;;;;;;4.67;4.27;;;10.40;42.00;;;;;;5052767;28;20204;-67
2020/12/17 09:24:58;;;;;;;4.40;4.10;;;10.30;41.90;;;;;;5052834;28;20179;-68
2020/12/17 09:27:28;;;;;;;4.80;4.40;;;10.40;41.30;;;;;;5052712;28;20480;-67
2020/12/17 09:30:10;;;;;;;4.90;4.43;;;10.50;41.50;;;;;;5052780;28;20418;-66
2020/12/17 09:32:38;;;;;;;5.37;4.97;;;10.60;40.80;;;;;;5052554;28;20434;-68
2020/12/17 09:35:07;;;;;;;4.57;4.27;;;10.60;40.90;;;;;;5052577;28;20422;-66
2020/12/17 09:37:34;;;;;;;5.17;4.77;;;10.60;40.90;;;;;;5052227;28;20444;-66
2020/12/17 09:40:00;;;;;;;4.83;4.53;;;10.50;40.80;;;;;;5049204;28;20494;-66
2020/12/17 09:42:25;;;;;;;5.70;5.20;;;10.40;41.00;;;;;;5052296;28;20469;-65
2020/12/17 09:44:51;;;;;;;8.53;5.60;;;10.20;41.80;;;;;;5052298;28;20279;-65
2020/12/17 09:47:33;;;;;;;4.50;4.20;;;10.40;42.00;;;;;;5051965;28;20180;-65
2020/12/17 09:50:10;;;;;;;4.97;4.63;;;10.60;41.40;;;;;;5052139;28;20410;-65
2020/12/17 09:52:35;;;;;;;8.83;4.80;;;10.60;41.20;;;;;;5052080;28;20450;-65
2020/12/17 09:55:01;;;;;;;5.23;4.80;;;10.70;40.90;;;;;;5052159;28;20838;-66
2020/12/17 09:57:38;;;;;;;5.30;4.77;;;10.60;41.10;;;;;;5051896;28;20176;-65
2020/12/17 10:00:06;;;;;;;6.70;4.60;;;10.70;41.30;;;;;;5051952;28;20269;-67
2020/12/17 10:02:32;;;;;;;8.60;6.63;;;10.40;42.00;;;;;;5051787;28;20855;-65
2020/12/17 10:04:57;;;;;;;5.07;4.67;;;10.50;42.00;;;;;;5051921;28;20490;-66
2020/12/17 10:07:23;;;;;;;12.57;11.23;;;10.40;42.30;;;;;;5051740;28;20255;-66
2020/12/17 10:09:49;;;;;;;5.27;4.87;;;10.30;42.90;;;;;;5051912;28;20207;-68
2020/12/17 10:12:14;;;;;;;4.73;4.33;;;10.50;43.00;;;;;;5051841;28;20414;-66
2020/12/17 10:14:40;;;;;;;7.30;4.77;;;10.60;42.80;;;;;;5051732;28;20539;-66
2020/12/17 10:17:05;;;;;;;7.37;4.90;;;10.70;42.80;;;;;;5051529;28;20259;-68
2020/12/17 10:19:31;;;;;;;6.20;5.60;;;10.80;42.30;;;;;;5051548;28;20208;-66
2020/12/17 10:21:58;;;;;;;5.03;4.63;;;10.90;42.20;;;;;;5050871;28;20255;-65
2020/12/17 10:24:23;;;;;;;5.00;4.60;;;10.80;42.30;;;;;;5051498;28;20229;-67
2020/12/17 10:26:49;;;;;;;5.97;5.37;;;11.00;42.40;;;;;;5051594;28;20407;-68
2020/12/17 10:29:15;;;;;;;6.63;5.37;;;10.90;42.40;;;;;;5051440;28;20306;-68
2020/12/17 10:31:40;;;;;;;6.10;5.50;;;10.80;42.30;;;;;;5051393;28;20732;-68
2020/12/17 10:34:06;;;;;;;8.77;5.40;;;10.80;42.30;;;;;;5051672;28;20199;-68
2020/12/17 10:36:37;;;;;;;5.50;4.80;;;10.70;42.50;;;;;;5051508;28;20209;-69
2020/12/17 10:39:03;;;;;;;4.47;4.17;;;10.90;42.40;;;;;;5051013;28;20453;-69
2020/12/17 10:41:29;;;;;;;7.47;5.33;;;10.90;42.40;;;;;;5051615;28;20402;-68
2020/12/17 10:43:54;;;;;;;5.57;5.07;;;11.00;42.80;;;;;;5051040;28;20509;-68
2020/12/17 10:46:20;;;;;;;5.93;5.20;;;11.10;42.60;;;;;;5051334;28;20176;-66
2020/12/17 10:48:46;;;;;;;5.27;4.87;;;11.30;42.80;;;;;;5051131;28;20176;-67
2020/12/17 10:51:15;;;;;;;5.90;5.40;;;11.20;42.60;;;;;;5052336;28;20417;-69
2020/12/17 10:53:42;;;;;;;6.97;5.37;;;11.20;42.70;;;;;;5051145;28;20449;-68
2020/12/17 10:56:09;;;;;;;5.27;4.73;;;11.20;42.70;;;;;;5051128;28;20469;-67
2020/12/17 10:58:35;;;;;;;6.37;4.90;;;11.40;42.40;;;;;;5050809;28;20460;-69
2020/12/17 11:01:01;;;;;;;5.27;4.87;;;11.30;42.00;;;;;;5044850;28;20415;-66
2020/12/17 11:03:27;;;;;;;6.40;5.07;;;11.40;42.90;;;;;;5050847;28;20488;-66
2020/12/17 11:05:53;;;;;;;4.60;4.10;;;11.50;41.80;;;;;;5051119;28;20403;-66
2020/12/17 11:08:19;;;;;;;5.03;4.43;;;11.70;42.00;;;;;;5050731;28;20982;-67
2020/12/17 11:10:45;;;;;;;4.27;3.97;;;11.80;41.40;;;;;;5050889;28;20414;-67
2020/12/17 11:13:10;;;;;;;6.10;4.60;;;11.70;41.00;;;;;;5050106;28;20434;-66
2020/12/17 11:15:36;;;;;;;4.87;4.40;;;11.70;41.20;;;;;;5050568;28;20171;-70
2020/12/17 11:18:02;;;;;;;4.73;4.43;;;11.70;41.30;;;;;;5050512;28;20176;-67
2020/12/17 11:20:27;;;;;;;4.63;4.33;;;11.80;41.50;;;;;;5050578;28;20211;-69
2020/12/17 11:22:53;;;;;;;8.17;4.33;;;11.90;40.80;;;;;;5048693;28;20239;-68
2020/12/17 11:25:18;;;;;;;4.47;4.00;;;12.00;40.60;;;;;;5050872;28;20259;-69
2020/12/17 11:27:44;;;;;;;4.77;4.30;;;12.00;40.60;;;;;;5050531;28;20168;-69
2020/12/17 11:30:10;;;;;;;3.83;3.53;;;12.00;40.60;;;;;;5050586;28;20172;-69
2020/12/17 11:32:35;;;;;;;5.00;4.60;;;12.00;40.40;;;;;;5050482;28;20203;-68
2020/12/17 11:35:06;;;;;;;6.73;5.03;;;12.00;40.80;;;;;;5054357;28;20182;-65
2020/12/17 11:37:32;;;;;;;4.80;4.40;;;12.20;40.30;;;;;;5054557;28;20183;-65
2020/12/17 11:39:58;;;;;;;4.37;4.07;;;12.30;40.20;;;;;;5054365;28;20454;-67
2020/12/17 11:42:23;;;;;;;5.63;4.50;;;12.30;41.20;;;;;;5054463;28;20465;-67
2020/12/17 11:44:49;;;;;;;5.63;3.73;;;12.50;39.70;;;;;;5054565;28;20184;-66
2020/12/17 11:47:15;;;;;;;4.17;3.80;;;12.50;39.10;;;;;;5054433;28;20164;-68
2020/12/17 11:49:41;;;;;;;5.07;4.57;;;12.50;39.50;;;;;;5054584;28;20196;-67
2020/12/17 11:52:07;;;;;;;3.80;3.40;;;12.60;39.10;;;;;;5054516;28;20219;-68
2020/12/17 11:54:32;;;;;;;5.13;4.63;;;12.60;40.00;;;;;;5054540;28;20438;-66
2020/12/17 11:56:58;;;;;;;5.40;4.87;;;12.60;38.90;;;;;;5054317;28;20190;-65
2020/12/17 11:59:23;;;;;;;4.30;4.00;;;12.50;39.10;;;;;;5053987;28;20200;-66
2020/12/17 12:01:49;;;;;;;5.27;4.10;;;12.60;38.90;;;;;;5054435;28;20256;-67
2020/12/17 12:04:14;;;;;;;7.23;4.50;;;12.70;39.70;;;;;;5054228;28;20607;-66
2020/12/17 12:06:39;;;;;;;7.73;5.30;;;12.70;38.40;;;;;;5054296;28;20168;-66
2020/12/17 12:09:08;;;;;;;4.43;4.13;;;12.70;38.40;;;;;;5054069;28;20168;-67
2020/12/17 12:11:34;;;;;;;5.63;3.90;;;12.80;38.50;;;;;;5054145;28;20203;-66
2020/12/17 12:13:59;;;;;;;5.33;3.90;;;12.90;38.40;;;;;;5054000;28;20987;-66
2020/12/17 12:16:25;;;;;;;4.30;4.00;;;12.90;38.20;;;;;;5054160;28;20176;-67
2020/12/17 12:18:51;;;;;;;4.50;4.10;;;13.00;38.20;;;;;;5053762;28;20204;-67
2020/12/17 12:21:17;;;;;;;3.73;3.40;;;13.10;38.30;;;;;;5053946;28;20175;-68
2020/12/17 12:23:43;;;;;;;4.20;3.47;;;13.10;37.50;;;;;;5053598;28;20204;-67
2020/12/17 12:26:09;;;;;;;4.07;3.70;;;13.10;37.90;;;;;;5053977;28;20909;-67
2020/12/17 12:28:35;;;;;;;4.63;4.20;;;13.10;37.90;;;;;;5047013;28;20419;-67
2020/12/17 12:31:02;;;;;;;9.00;5.87;;;13.20;38.00;;;;;;5044566;28;20497;-67
2020/12/17 12:33:29;;;;;;;5.43;4.60;;;13.20;38.20;;;;;;5040916;28;20239;-67
2020/12/17 12:35:54;;;;;;;5.37;4.97;;;13.10;38.40;;;;;;5041641;28;20410;-66
2020/12/17 12:38:21;;;;;;;5.30;5.00;;;13.10;38.20;;;;;;5040442;28;20422;-66
2020/12/17 12:40:46;;;;;;;6.33;4.77;;;13.10;37.90;;;;;;5041182;28;20176;-67
2020/12/17 12:43:12;;;;;;;8.60;6.13;;;13.20;38.30;;;;;;5042461;28;20790;-66
2020/12/17 12:45:37;;;;;;;5.20;4.80;;;13.20;38.70;;;;;;5041755;28;20248;-66
2020/12/17 12:48:03;;;;;;;6.93;6.40;;;13.10;38.50;;;;;;5040959;28;20172;-66
2020/12/17 12:50:29;;;;;;;7.00;6.40;;;13.10;38.80;;;;;;5043008;28;20191;-66